sensor_id;sensor_type;location;lat;lon;timestamp;pressure;altitude;pressure_sealevel;temperature;humidity
10392;BME280;5242;49.244;6.774;2023-02-03T00:02:22;100997.19;;;6.28;nan
10392;BME280;5242;49.244;6.774;2023-02-03T00:10:15;101000.78;;;6.24;nan
10392;BME280;5242;49.244;6.774;2023-02-03T00:18:11;101013.78;;;6.22;nan
10392;BME280;5242;49.244;6.774;2023-02-03T00:26:08;101021.59;;;6.23;nan
10392;BME280;5242;49.244;6.774;2023-02-03T00:34:00;101018.41;;;6.21;nan
10392;BME280;5242;49.244;6.774;2023-02-03T00:41:52;101004.63;;;6.18;nan
10392;BME280;5242;49.244;6.774;2023-02-03T00:57:43;100993.28;;;6.16;nan
10392;BME280;5242;49.244;6.774;2023-02-03T01:05:36;101014.13;;;6.15;nan
10392;BME280;5242;49.244;6.774;2023-02-03T01:13:28;101009.50;;;6.16;nan
10392;BME280;5242;49.244;6.774;2023-02-03T01:21:23;100999.78;;;6.15;nan
10392;BME280;5242;49.244;6.774;2023-02-03T01:29:15;100983.03;;;6.13;nan
10392;BME280;5242;49.244;6.774;2023-02-03T01:37:06;100975.72;;;6.13;nan
10392;BME280;5242;49.244;6.774;2023-02-03T01:44:58;100947.59;;;6.14;nan
10392;BME280;5242;49.244;6.774;2023-02-03T01:52:55;100898.91;;;6.14;nan
10392;BME280;5242;49.244;6.774;2023-02-03T02:00:48;100898.09;;;6.14;nan
10392;BME280;5242;49.244;6.774;2023-02-03T02:08:43;100905.13;;;6.15;nan
10392;BME280;5242;49.244;6.774;2023-02-03T02:16:53;100881.56;;;6.15;nan
10392;BME280;5242;49.244;6.774;2023-02-03T02:25:00;100906.72;;;6.16;nan
10392;BME280;5242;49.244;6.774;2023-02-03T02:49:25;100904.69;;;6.26;nan
10392;BME280;5242;49.244;6.774;2023-02-03T02:57:22;100917.66;;;6.29;nan
10392;BME280;5242;49.244;6.774;2023-02-03T03:05:16;100925.69;;;6.35;nan
10392;BME280;5242;49.244;6.774;2023-02-03T03:13:12;100953.75;;;6.39;nan
10392;BME280;5242;49.244;6.774;2023-02-03T03:21:11;100969.44;;;6.42;nan
10392;BME280;5242;49.244;6.774;2023-02-03T03:29:18;100953.69;;;6.44;nan
10392;BME280;5242;49.244;6.774;2023-02-03T03:37:46;100966.16;;;6.45;nan
10392;BME280;5242;49.244;6.774;2023-02-03T03:45:59;100954.22;;;6.46;nan
10392;BME280;5242;49.244;6.774;2023-02-03T03:53:55;100952.63;;;6.45;nan
10392;BME280;5242;49.244;6.774;2023-02-03T04:01:49;100933.69;;;6.45;nan
10392;BME280;5242;49.244;6.774;2023-02-03T04:09:42;100925.56;;;6.45;nan
10392;BME280;5242;49.244;6.774;2023-02-03T04:17:33;100914.72;;;6.45;nan
10392;BME280;5242;49.244;6.774;2023-02-03T04:25:26;100908.22;;;6.46;nan
10392;BME280;5242;49.244;6.774;2023-02-03T04:33:18;100940.09;;;6.49;nan
10392;BME280;5242;49.244;6.774;2023-02-03T04:41:10;100936.84;;;6.52;nan
10392;BME280;5242;49.244;6.774;2023-02-03T04:49:02;100926.56;;;6.49;nan
10392;BME280;5242;49.244;6.774;2023-02-03T04:56:53;100948.28;;;6.44;nan
10392;BME280;5242;49.244;6.774;2023-02-03T05:04:45;100942.38;;;6.42;nan
10392;BME280;5242;49.244;6.774;2023-02-03T05:12:37;100931.03;;;6.40;nan
10392;BME280;5242;49.244;6.774;2023-02-03T05:20:29;100957.59;;;6.38;nan
10392;BME280;5242;49.244;6.774;2023-02-03T05:28:20;100930.59;;;6.32;nan
10392;BME280;5242;49.244;6.774;2023-02-03T05:36:12;100925.75;;;6.29;nan
10392;BME280;5242;49.244;6.774;2023-02-03T05:44:04;100945.28;;;6.26;nan
10392;BME280;5242;49.244;6.774;2023-02-03T05:51:56;100946.94;;;6.22;nan
10392;BME280;5242;49.244;6.774;2023-02-03T05:59:47;100923.19;;;6.19;nan
10392;BME280;5242;49.244;6.774;2023-02-03T06:07:40;100925.38;;;6.17;nan
10392;BME280;5242;49.244;6.774;2023-02-03T06:15:32;100916.16;;;6.18;nan
10392;BME280;5242;49.244;6.774;2023-02-03T06:23:23;100922.59;;;6.22;nan
10392;BME280;5242;49.244;6.774;2023-02-03T06:31:15;100919.84;;;6.27;nan
10392;BME280;5242;49.244;6.774;2023-02-03T06:39:07;100923.66;;;6.26;nan
10392;BME280;5242;49.244;6.774;2023-02-03T06:46:59;100921.44;;;6.28;nan
10392;BME280;5242;49.244;6.774;2023-02-03T06:54:52;100908.41;;;6.30;nan
10392;BME280;5242;49.244;6.774;2023-02-03T07:02:44;100893.81;;;6.31;nan
10392;BME280;5242;49.244;6.774;2023-02-03T07:10:36;100920.28;;;6.35;nan
10392;BME280;5242;49.244;6.774;2023-02-03T07:18:28;100923.50;;;6.37;nan
10392;BME280;5242;49.244;6.774;2023-02-03T07:26:38;100936.66;;;6.43;nan
10392;BME280;5242;49.244;6.774;2023-02-03T07:34:30;100941.50;;;6.46;nan
10392;BME280;5242;49.244;6.774;2023-02-03T07:42:22;100947.16;;;6.50;nan
10392;BME280;5242;49.244;6.774;2023-02-03T07:50:14;100963.06;;;6.51;nan
10392;BME280;5242;49.244;6.774;2023-02-03T07:58:06;100965.78;;;6.51;nan
10392;BME280;5242;49.244;6.774;2023-02-03T08:05:58;100991.47;;;6.54;nan
10392;BME280;5242;49.244;6.774;2023-02-03T08:13:50;101007.88;;;6.63;nan
10392;BME280;5242;49.244;6.774;2023-02-03T08:21:42;101009.72;;;6.67;nan
10392;BME280;5242;49.244;6.774;2023-02-03T08:29:34;101002.69;;;6.66;nan
10392;BME280;5242;49.244;6.774;2023-02-03T08:37:25;100994.56;;;6.66;nan
10392;BME280;5242;49.244;6.774;2023-02-03T08:45:19;101016.66;;;6.73;nan
10392;BME280;5242;49.244;6.774;2023-02-03T08:53:10;101000.28;;;6.84;nan
10392;BME280;5242;49.244;6.774;2023-02-03T09:01:10;101008.94;;;6.86;nan
10392;BME280;5242;49.244;6.774;2023-02-03T09:09:03;101016.47;;;6.89;nan
10392;BME280;5242;49.244;6.774;2023-02-03T09:16:54;101007.66;;;6.97;nan
10392;BME280;5242;49.244;6.774;2023-02-03T09:24:46;101004.06;;;7.21;nan
10392;BME280;5242;49.244;6.774;2023-02-03T09:32:41;101013.16;;;7.30;nan
10392;BME280;5242;49.244;6.774;2023-02-03T09:40:33;101012.19;;;7.21;nan
10392;BME280;5242;49.244;6.774;2023-02-03T09:48:31;101038.44;;;7.06;nan
10392;BME280;5242;49.244;6.774;2023-02-03T09:56:30;101048.81;;;6.99;nan
10392;BME280;5242;49.244;6.774;2023-02-03T10:04:51;101014.47;;;6.94;nan
10392;BME280;5242;49.244;6.774;2023-02-03T10:12:49;101015.72;;;7.02;nan
10392;BME280;5242;49.244;6.774;2023-02-03T10:20:48;101023.69;;;7.12;nan
10392;BME280;5242;49.244;6.774;2023-02-03T10:28:47;101018.44;;;7.21;nan
10392;BME280;5242;49.244;6.774;2023-02-03T10:44:43;101018.28;;;7.31;nan
10392;BME280;5242;49.244;6.774;2023-02-03T10:52:35;100999.88;;;7.47;nan
10392;BME280;5242;49.244;6.774;2023-02-03T11:00:31;100982.13;;;7.36;nan
10392;BME280;5242;49.244;6.774;2023-02-03T11:08:29;100954.84;;;7.32;nan
10392;BME280;5242;49.244;6.774;2023-02-03T11:16:22;100957.56;;;7.46;nan
10392;BME280;5242;49.244;6.774;2023-02-03T11:32:21;100948.78;;;7.54;nan
10392;BME280;5242;49.244;6.774;2023-02-03T12:12:34;100926.47;;;7.57;nan
10392;BME280;5242;49.244;6.774;2023-02-03T12:29:10;100949.06;;;7.67;nan
10392;BME280;5242;49.244;6.774;2023-02-03T12:37:15;100960.94;;;7.71;nan
10392;BME280;5242;49.244;6.774;2023-02-03T12:45:15;100967.38;;;7.75;nan
10392;BME280;5242;49.244;6.774;2023-02-03T12:53:22;100966.28;;;7.76;nan
10392;BME280;5242;49.244;6.774;2023-02-03T13:01:19;100961.13;;;7.74;nan
10392;BME280;5242;49.244;6.774;2023-02-03T13:17:21;100938.22;;;7.67;nan
10392;BME280;5242;49.244;6.774;2023-02-03T13:25:26;100922.47;;;7.69;nan
10392;BME280;5242;49.244;6.774;2023-02-03T13:41:27;100887.22;;;7.69;nan
10392;BME280;5242;49.244;6.774;2023-02-03T13:49:23;100890.03;;;7.63;nan
10392;BME280;5242;49.244;6.774;2023-02-03T13:57:36;100891.03;;;7.68;nan
10392;BME280;5242;49.244;6.774;2023-02-03T14:05:41;100893.94;;;7.71;nan
10392;BME280;5242;49.244;6.774;2023-02-03T14:13:34;100907.00;;;7.69;nan
10392;BME280;5242;49.244;6.774;2023-02-03T14:21:28;100901.66;;;7.64;nan
10392;BME280;5242;49.244;6.774;2023-02-03T14:37:25;100893.94;;;7.57;nan
10392;BME280;5242;49.244;6.774;2023-02-03T14:45:52;100898.06;;;7.55;nan
10392;BME280;5242;49.244;6.774;2023-02-03T14:54:14;100915.72;;;7.52;nan
10392;BME280;5242;49.244;6.774;2023-02-03T15:02:23;100924.16;;;7.51;nan
10392;BME280;5242;49.244;6.774;2023-02-03T15:10:19;100909.78;;;7.50;nan
10392;BME280;5242;49.244;6.774;2023-02-03T15:18:28;100930.38;;;7.51;nan
10392;BME280;5242;49.244;6.774;2023-02-03T15:26:23;100933.91;;;7.52;nan
10392;BME280;5242;49.244;6.774;2023-02-03T15:34:28;100925.78;;;7.52;nan
10392;BME280;5242;49.244;6.774;2023-02-03T15:42:41;100922.56;;;7.50;nan
10392;BME280;5242;49.244;6.774;2023-02-03T15:50:39;100948.88;;;7.49;nan
10392;BME280;5242;49.244;6.774;2023-02-03T15:58:39;100935.31;;;7.49;nan
10392;BME280;5242;49.244;6.774;2023-02-03T16:06:36;100953.19;;;7.50;nan
10392;BME280;5242;49.244;6.774;2023-02-03T16:14:33;100944.75;;;7.52;nan
10392;BME280;5242;49.244;6.774;2023-02-03T16:22:29;100960.94;;;7.57;nan
10392;BME280;5242;49.244;6.774;2023-02-03T16:30:23;100951.06;;;7.47;nan
10392;BME280;5242;49.244;6.774;2023-02-03T16:38:34;100947.66;;;7.42;nan
10392;BME280;5242;49.244;6.774;2023-02-03T16:46:45;100961.47;;;7.40;nan
10392;BME280;5242;49.244;6.774;2023-02-03T16:54:56;100972.31;;;7.40;nan
10392;BME280;5242;49.244;6.774;2023-02-03T17:02:49;100998.84;;;7.43;nan
10392;BME280;5242;49.244;6.774;2023-02-03T17:10:43;100976.53;;;7.46;nan
10392;BME280;5242;49.244;6.774;2023-02-03T17:18:35;100994.00;;;7.40;nan
10392;BME280;5242;49.244;6.774;2023-02-03T17:26:27;100998.19;;;7.32;nan
10392;BME280;5242;49.244;6.774;2023-02-03T17:34:19;100988.25;;;7.28;nan
10392;BME280;5242;49.244;6.774;2023-02-03T17:42:10;100999.41;;;7.26;nan
10392;BME280;5242;49.244;6.774;2023-02-03T17:50:20;101002.59;;;7.28;nan
10392;BME280;5242;49.244;6.774;2023-02-03T17:58:30;101017.44;;;7.31;nan
10392;BME280;5242;49.244;6.774;2023-02-03T18:06:23;101022.31;;;7.34;nan
10392;BME280;5242;49.244;6.774;2023-02-03T18:14:15;101013.06;;;7.35;nan
10392;BME280;5242;49.244;6.774;2023-02-03T18:22:08;101019.28;;;7.35;nan
10392;BME280;5242;49.244;6.774;2023-02-03T18:30:00;101021.91;;;7.40;nan
10392;BME280;5242;49.244;6.774;2023-02-03T18:37:52;101035.19;;;7.42;nan
10392;BME280;5242;49.244;6.774;2023-02-03T18:45:43;101046.53;;;7.44;nan
10392;BME280;5242;49.244;6.774;2023-02-03T18:53:36;101039.41;;;7.48;nan
10392;BME280;5242;49.244;6.774;2023-02-03T19:01:29;101035.91;;;7.48;nan
10392;BME280;5242;49.244;6.774;2023-02-03T19:09:21;101034.59;;;7.45;nan
10392;BME280;5242;49.244;6.774;2023-02-03T19:17:14;101026.97;;;7.47;nan
10392;BME280;5242;49.244;6.774;2023-02-03T19:25:07;101049.47;;;7.48;nan
10392;BME280;5242;49.244;6.774;2023-02-03T19:32:59;101052.38;;;7.51;nan
10392;BME280;5242;49.244;6.774;2023-02-03T19:40:51;101055.59;;;7.53;nan
10392;BME280;5242;49.244;6.774;2023-02-03T19:48:43;101073.19;;;7.56;nan
10392;BME280;5242;49.244;6.774;2023-02-03T19:56:34;101082.63;;;7.58;nan
10392;BME280;5242;49.244;6.774;2023-02-03T20:04:26;101091.28;;;7.60;nan
10392;BME280;5242;49.244;6.774;2023-02-03T20:12:18;101098.81;;;7.63;nan
10392;BME280;5242;49.244;6.774;2023-02-03T20:20:10;101097.44;;;7.66;nan
10392;BME280;5242;49.244;6.774;2023-02-03T20:28:02;101104.16;;;7.69;nan
10392;BME280;5242;49.244;6.774;2023-02-03T20:35:55;101118.25;;;7.71;nan
10392;BME280;5242;49.244;6.774;2023-02-03T20:43:47;101123.66;;;7.71;nan
10392;BME280;5242;49.244;6.774;2023-02-03T20:51:41;101122.56;;;7.72;nan
10392;BME280;5242;49.244;6.774;2023-02-03T20:59:32;101118.34;;;7.98;nan
10392;BME280;5242;49.244;6.774;2023-02-03T21:07:28;101115.88;;;7.83;nan
10392;BME280;5242;49.244;6.774;2023-02-03T21:15:27;101112.13;;;7.79;nan
10392;BME280;5242;49.244;6.774;2023-02-03T21:23:36;101099.69;;;7.78;nan
10392;BME280;5242;49.244;6.774;2023-02-03T21:31:33;101104.59;;;7.76;nan
10392;BME280;5242;49.244;6.774;2023-02-03T21:39:30;101099.19;;;7.76;nan
10392;BME280;5242;49.244;6.774;2023-02-03T21:47:23;101104.41;;;7.72;nan
10392;BME280;5242;49.244;6.774;2023-02-03T21:55:14;101106.28;;;7.72;nan
10392;BME280;5242;49.244;6.774;2023-02-03T22:03:21;101109.00;;;7.72;nan
10392;BME280;5242;49.244;6.774;2023-02-03T22:11:19;101118.44;;;7.74;nan
10392;BME280;5242;49.244;6.774;2023-02-03T22:19:12;101120.06;;;7.75;nan
10392;BME280;5242;49.244;6.774;2023-02-03T22:27:03;101127.91;;;7.77;nan
10392;BME280;5242;49.244;6.774;2023-02-03T22:34:56;101138.19;;;7.80;nan
10392;BME280;5242;49.244;6.774;2023-02-03T22:42:48;101145.41;;;7.84;nan
10392;BME280;5242;49.244;6.774;2023-02-03T22:50:40;101158.97;;;7.84;nan
10392;BME280;5242;49.244;6.774;2023-02-03T22:58:32;101148.13;;;7.84;nan
10392;BME280;5242;49.244;6.774;2023-02-03T23:06:24;101147.31;;;7.84;nan
10392;BME280;5242;49.244;6.774;2023-02-03T23:14:16;101145.13;;;7.86;nan
10392;BME280;5242;49.244;6.774;2023-02-03T23:22:07;101154.88;;;7.87;nan
10392;BME280;5242;49.244;6.774;2023-02-03T23:29:59;101163.50;;;7.89;nan
10392;BME280;5242;49.244;6.774;2023-02-03T23:37:51;101144.53;;;7.89;nan
10392;BME280;5242;49.244;6.774;2023-02-03T23:45:43;101152.38;;;7.91;nan
10392;BME280;5242;49.244;6.774;2023-02-03T23:53:34;101155.91;;;7.91;nan
